Time;durP1;ratioP1;P1;durP2;ratioP2;P2;SDS_P1;SDS_P2;PMS_P1;PMS_P2;Temp;Humidity;BMP_temperature;BMP_pressure;BME280_temperature;BME280_humidity;BME280_pressure;Samples;Min_cycle;Max_cycle;Signal;HPM_P1;HPM_P2
2023/10/12 00:01:14;;;;;;;;;;;;;;;;;;4953524;28;19981;-74
2023/10/12 00:03:44;;;;;;;;;;;;;;;;;;4969988;28;20006;-74
2023/10/12 00:06:13;;;;;;;;;;;;;;;;;;4933930;28;19926;-73
2023/10/12 00:08:41;;;;;;;;;;;;;;;;;;4933880;28;19968;-73
2023/10/12 00:11:08;;;;;;;;;;;;;;;;;;4932672;29;19966;-74
2023/10/12 00:13:41;;;;;;;;;;;;;;;;;;4955670;28;19943;-74
2023/10/12 00:16:09;;;;;;;;;;;;;;;;;;4934185;28;19934;-74
2023/10/12 00:18:38;;;;;;;;;;;;;;;;;;4976463;28;19925;-73
2023/10/12 00:21:15;;;;;;;;;;;;;;;;;;5034425;28;19949;-73
2023/10/12 00:23:43;;;;;;;;;;;;;;;;;;5003826;28;19927;-74
2023/10/12 00:26:11;;;;;;;;;;;;;;;;;;4935185;29;19926;-73
2023/10/12 00:28:39;;;;;;;;;;;;;;;;;;4935540;29;19927;-73
2023/10/12 00:31:12;;;;;;;;;;;;;;;;;;4952719;28;19930;-74
2023/10/12 00:33:39;;;;;;;;;;;;;;;;;;4996803;28;19933;-74
2023/10/12 00:36:21;;;;;;;;;;;;;;;;;;4933837;28;20390;-74
2023/10/12 00:38:48;;;;;;;;;;;;;;;;;;4914488;28;20391;-74
2023/10/12 00:41:17;;;;;;;;;;;;;;;;;;4924754;28;20394;-73
2023/10/12 00:43:44;;;;;;;;;;;;;;;;;;4919693;29;19927;-75
2023/10/12 00:46:21;;;;;;;;;;;;;;;;;;4933434;28;19989;-73
2023/10/12 00:48:50;;;;;;;;;;;;;;;;;;5015325;28;19926;-75
2023/10/12 00:51:17;;;;;;;;;;;;;;;;;;4938026;28;19934;-74
2023/10/12 00:53:55;;;;;;;;;;;;;;;;;;4924303;29;19931;-74
2023/10/12 00:56:22;;;;;;;;;;;;;;;;;;4932823;28;19927;-73
2023/10/12 00:58:50;;;;;;;;;;;;;;;;;;4937551;28;20034;-74
2023/10/12 01:01:20;;;;;;;;;;;;;;;;;;4952003;28;19927;-74
2023/10/12 01:03:50;;;;;;;;;;;;;;;;;;4998915;28;19961;-74
2023/10/12 01:06:28;;;;;;;;;;;;;;;;;;4942880;28;19933;-73
2023/10/12 01:08:57;;;;;;;;;;;;;;;;;;4952420;28;19926;-74
2023/10/12 01:11:26;;;;;;;;;;;;;;;;;;4940023;28;19927;-73
2023/10/12 01:14:03;;;;;;;;;;;;;;;;;;4920252;29;19927;-74
2023/10/12 01:16:42;;;;;;;;;;;;;;;;;;4932421;28;20337;-74
2023/10/12 01:19:09;;;;;;;;;;;;;;;;;;4933479;29;19927;-73
2023/10/12 01:21:36;;;;;;;;;;;;;;;;;;4931321;28;19931;-73
2023/10/12 01:24:05;;;;;;;;;;;;;;;;;;4981292;28;19925;-73
2023/10/12 01:26:33;;;;;;;;;;;;;;;;;;5020488;28;20308;-73
2023/10/12 01:29:00;;;;;;;;;;;;;;;;;;4931624;29;19959;-73
2023/10/12 01:31:28;;;;;;;;;;;;;;;;;;4933226;28;20398;-73
2023/10/12 01:33:55;;;;;;;;;;;;;;;;;;4942018;28;19989;-73
2023/10/12 01:36:22;;;;;;;;;;;;;;;;;;4968919;28;20425;-74
2023/10/12 01:38:49;;;;;;;;;;;;;;;;;;4970097;28;19973;-74
2023/10/12 01:41:25;;;;;;;;;;;;;;;;;;4988063;28;20362;-74
2023/10/12 01:43:52;;;;;;;;;;;;;;;;;;4988491;28;19927;-73
2023/10/12 01:46:21;;;;;;;;;;;;;;;;;;4950186;28;20296;-74
2023/10/12 01:48:49;;;;;;;;;;;;;;;;;;4948434;28;19933;-73
2023/10/12 01:51:24;;;;;;;;;;;;;;;;;;4947054;28;19933;-74
2023/10/12 01:53:51;;;;;;;;;;;;;;;;;;4930610;29;19933;-74
2023/10/12 01:56:18;;;;;;;;;;;;;;;;;;4949259;28;19925;-74
2023/10/12 01:58:48;;;;;;;;;;;;;;;;;;5032403;28;20028;-74
2023/10/12 02:01:20;;;;;;;;;;;;;;;;;;5026978;28;19925;-74
2023/10/12 02:03:47;;;;;;;;;;;;;;;;;;4994304;28;19969;-74
2023/10/12 02:06:16;;;;;;;;;;;;;;;;;;4943713;28;19929;-74
2023/10/12 02:08:47;;;;;;;;;;;;;;;;;;4931663;28;19934;-74
2023/10/12 02:11:26;;;;;;;;;;;;;;;;;;4931979;29;19927;-74
2023/10/12 02:13:54;;;;;;;;;;;;;;;;;;4930979;28;19927;-74
2023/10/12 02:16:24;;;;;;;;;;;;;;;;;;4944122;28;19926;-73
2023/10/12 02:18:53;;;;;;;;;;;;;;;;;;5032314;28;19925;-73
2023/10/12 02:21:22;;;;;;;;;;;;;;;;;;5031836;28;19925;-73
2023/10/12 02:23:57;;;;;;;;;;;;;;;;;;4979272;28;19926;-73
2023/10/12 02:26:37;;;;;;;;;;;;;;;;;;4958129;28;20330;-73
2023/10/12 02:29:17;;;;;;;;;;;;;;;;;;5031948;28;19969;-73
2023/10/12 02:31:55;;;;;;;;;;;;;;;;;;5026678;28;19948;-73
2023/10/12 02:34:25;;;;;;;;;;;;;;;;;;4954190;28;19931;-74
2023/10/12 02:37:00;;;;;;;;;;;;;;;;;;4959528;28;20023;-74
2023/10/12 02:39:27;;;;;;;;;;;;;;;;;;5032301;28;20035;-74
2023/10/12 02:42:10;;;;;;;;;;;;;;;;;;4960620;28;19996;-74
2023/10/12 02:44:42;;;;;;;;;;;;;;;;;;4930578;29;19927;-73
2023/10/12 02:47:12;;;;;;;;;;;;;;;;;;4965534;28;19933;-74
2023/10/12 02:49:40;;;;;;;;;;;;;;;;;;5031479;28;20019;-74
2023/10/12 02:52:08;;;;;;;;;;;;;;;;;;5031742;28;19932;-74
2023/10/12 02:54:48;;;;;;;;;;;;;;;;;;4947004;28;21051;-73
2023/10/12 02:57:16;;;;;;;;;;;;;;;;;;4964509;28;20355;-73
2023/10/12 02:59:49;;;;;;;;;;;;;;;;;;4953921;28;19927;-73
2023/10/12 03:02:22;;;;;;;;;;;;;;;;;;5024396;28;19931;-73
2023/10/12 03:04:49;;;;;;;;;;;;;;;;;;4912115;29;19935;-73
2023/10/12 03:07:22;;;;;;;;;;;;;;;;;;4941446;28;19978;-73
2023/10/12 03:09:58;;;;;;;;;;;;;;;;;;4931339;29;20025;-73
2023/10/12 03:12:25;;;;;;;;;;;;;;;;;;4932065;28;20021;-74
2023/10/12 03:14:52;;;;;;;;;;;;;;;;;;4938719;28;19927;-73
2023/10/12 03:17:19;;;;;;;;;;;;;;;;;;4977984;28;19929;-73
2023/10/12 03:19:55;;;;;;;;;;;;;;;;;;5034971;28;19975;-73
2023/10/12 03:22:31;;;;;;;;;;;;;;;;;;5020058;28;20345;-73
2023/10/12 03:25:05;;;;;;;;;;;;;;;;;;4943939;29;20058;-73
2023/10/12 03:27:34;;;;;;;;;;;;;;;;;;4933860;28;19931;-74
2023/10/12 03:30:07;;;;;;;;;;;;;;;;;;4933224;28;19927;-72
2023/10/12 03:32:34;;;;;;;;;;;;;;;;;;4968203;28;19925;-73
2023/10/12 03:35:04;;;;;;;;;;;;;;;;;;5034957;28;19925;-74
2023/10/12 03:37:47;;;;;;;;;;;;;;;;;;5008753;28;19927;-73
2023/10/12 03:43:08;;;;;;;;;;;;;;;;;;4924812;28;19930;-74
2023/10/12 03:45:38;;;;;;;;;;;;;;;;;;4934189;28;19934;-74
2023/10/12 03:48:20;;;;;;;;;;;;;;;;;;4947356;28;20432;-74
2023/10/12 03:50:58;;;;;;;;;;;;;;;;;;4979655;28;19925;-74
2023/10/12 03:53:30;;;;;;;;;;;;;;;;;;4953183;28;19962;-74
2023/10/12 03:55:58;;;;;;;;;;;;;;;;;;4941674;28;19970;-74
2023/10/12 03:58:25;;;;;;;;;;;;;;;;;;4932824;29;20445;-75
2023/10/12 04:01:06;;;;;;;;;;;;;;;;;;5007392;28;19940;-74
2023/10/12 04:03:37;;;;;;;;;;;;;;;;;;5028082;28;19971;-74
2023/10/12 04:06:06;;;;;;;;;;;;;;;;;;4934011;28;20022;-74
2023/10/12 04:08:43;;;;;;;;;;;;;;;;;;4940684;29;19966;-73
2023/10/12 04:14:17;;;;;;;;;;;;;;;;;;4934849;29;20389;-74
2023/10/12 04:16:45;;;;;;;;;;;;;;;;;;4950608;28;19932;-74
2023/10/12 04:19:15;;;;;;;;;;;;;;;;;;4963648;28;19927;-74
2023/10/12 04:21:56;;;;;;;;;;;;;;;;;;4933668;29;19927;-74
2023/10/12 04:24:42;;;;;;;;;;;;;;;;;;4937316;29;19933;-73
2023/10/12 04:27:23;;;;;;;;;;;;;;;;;;4961554;28;19929;-74
2023/10/12 04:29:56;;;;;;;;;;;;;;;;;;4939053;28;19973;-73
2023/10/12 04:32:38;;;;;;;;;;;;;;;;;;4984777;28;20043;-73
2023/10/12 04:35:14;;;;;;;;;;;;;;;;;;4961688;28;19980;-74
2023/10/12 04:37:42;;;;;;;;;;;;;;;;;;4979527;28;19947;-73
2023/10/12 04:40:32;;;;;;;;;;;;;;;;;;4949537;28;20386;-73
2023/10/12 04:43:00;;;;;;;;;;;;;;;;;;4933016;29;19926;-73
2023/10/12 04:45:30;;;;;;;;;;;;;;;;;;4941935;29;20423;-73
2023/10/12 04:48:07;;;;;;;;;;;;;;;;;;4983830;28;19925;-73
2023/10/12 04:50:44;;;;;;;;;;;;;;;;;;4932573;29;19927;-73
2023/10/12 04:53:12;;;;;;;;;;;;;;;;;;4931667;29;19927;-73
2023/10/12 04:55:47;;;;;;;;;;;;;;;;;;4932353;28;19954;-73
2023/10/12 04:58:30;;;;;;;;;;;;;;;;;;4958214;28;20008;-73
2023/10/12 05:01:13;;;;;;;;;;;;;;;;;;4933462;28;19935;-73
2023/10/12 05:03:41;;;;;;;;;;;;;;;;;;4994371;28;20382;-71
2023/10/12 05:06:09;;;;;;;;;;;;;;;;;;4933333;29;19937;-73
2023/10/12 05:08:36;;;;;;;;;;;;;;;;;;4932163;28;19930;-73
2023/10/12 05:11:06;;;;;;;;;;;;;;;;;;4933130;28;19926;-73
2023/10/12 05:13:33;;;;;;;;;;;;;;;;;;4988330;28;20559;-73
2023/10/12 05:16:05;;;;;;;;;;;;;;;;;;4986842;28;19946;-75
2023/10/12 05:18:32;;;;;;;;;;;;;;;;;;4961986;28;19981;-76
2023/10/12 05:21:00;;;;;;;;;;;;;;;;;;4950413;28;19931;-74
2023/10/12 05:23:27;;;;;;;;;;;;;;;;;;4931649;28;20053;-75
2023/10/12 05:26:09;;;;;;;;;;;;;;;;;;4922725;29;19984;-75
2023/10/12 05:28:38;;;;;;;;;;;;;;;;;;4923123;29;19934;-75
2023/10/12 05:31:13;;;;;;;;;;;;;;;;;;4931010;29;19973;-75
2023/10/12 05:33:43;;;;;;;;;;;;;;;;;;5009977;23;19932;-76
2023/10/12 05:36:09;;;;;;;;;;;;;;;;;;5051863;28;20020;-75
2023/10/12 05:38:36;;;;;;;;;;;;;;;;;;5047489;28;19929;-74
2023/10/12 05:41:04;;;;;;;;;;;;;;;;;;5053072;28;19951;-74
2023/10/12 05:43:33;;;;;;;;;;;;;;;;;;5045564;22;19988;-75
2023/10/12 05:46:04;;;;;;;;;;;;;;;;;;5063363;28;19929;-74
2023/10/12 05:48:33;;;;;;;;;;;;;;;;;;5032022;28;19940;-75
2023/10/12 05:51:00;;;;;;;;;;;;;;;;;;5027346;28;19975;-74
2023/10/12 05:53:28;;;;;;;;;;;;;;;;;;5031910;28;19933;-76
2023/10/12 05:55:57;;;;;;;;;;;;;;;;;;5032401;28;19979;-75
2023/10/12 05:58:24;;;;;;;;;;;;;;;;;;5028436;28;19933;-75
2023/10/12 06:00:53;;;;;;;;;;;;;;;;;;5027349;28;19925;-74
2023/10/12 06:03:22;;;;;;;;;;;;;;;;;;5030198;28;19925;-76
2023/10/12 06:05:50;;;;;;;;;;;;;;;;;;5031565;28;19928;-74
2023/10/12 06:08:18;;;;;;;;;;;;;;;;;;5029646;28;19933;-76
2023/10/12 06:10:45;;;;;;;;;;;;;;;;;;5030354;28;19941;-75
2023/10/12 06:13:13;;;;;;;;;;;;;;;;;;5030084;28;19925;-74
2023/10/12 06:15:42;;;;;;;;;;;;;;;;;;5029968;28;20272;-73
2023/10/12 06:18:13;;;;;;;;;;;;;;;;;;5030541;28;20062;-75
2023/10/12 06:20:42;;;;;;;;;;;;;;;;;;5029461;28;19931;-75
2023/10/12 06:23:13;;;;;;;;;;;;;;;;;;5029804;28;20018;-76
2023/10/12 06:25:43;;;;;;;;;;;;;;;;;;5027614;28;19986;-76
2023/10/12 06:28:17;;;;;;;;;;;;;;;;;;5029085;28;20020;-76
2023/10/12 06:30:44;;;;;;;;;;;;;;;;;;5030692;28;19937;-76
2023/10/12 06:33:14;;;;;;;;;;;;;;;;;;5030588;28;20311;-75
2023/10/12 06:35:58;;;;;;;;;;;;;;;;;;5028161;28;19932;-75
2023/10/12 06:38:36;;;;;;;;;;;;;;;;;;5032160;28;19950;-76
2023/10/12 06:41:27;;;;;;;;;;;;;;;;;;5029011;28;20007;-75
2023/10/12 06:43:59;;;;;;;;;;;;;;;;;;5028939;28;19929;-75
2023/10/12 06:46:28;;;;;;;;;;;;;;;;;;5022433;28;19961;-76
2023/10/12 06:49:00;;;;;;;;;;;;;;;;;;5028830;28;20019;-76
2023/10/12 06:51:28;;;;;;;;;;;;;;;;;;5031053;28;20008;-75
2023/10/12 06:54:05;;;;;;;;;;;;;;;;;;5027844;28;19925;-75
2023/10/12 06:56:35;;;;;;;;;;;;;;;;;;5033469;28;20017;-76
2023/10/12 06:59:11;;;;;;;;;;;;;;;;;;5025729;28;19925;-76
2023/10/12 07:01:39;;;;;;;;;;;;;;;;;;5032417;28;19925;-74
2023/10/12 07:04:12;;;;;;;;;;;;;;;;;;5030332;28;19972;-75
2023/10/12 07:06:40;;;;;;;;;;;;;;;;;;5032344;28;19929;-75
2023/10/12 07:09:07;;;;;;;;;;;;;;;;;;5030573;28;19972;-76
2023/10/12 07:11:34;;;;;;;;;;;;;;;;;;5032404;28;19964;-75
2023/10/12 07:14:05;;;;;;;;;;;;;;;;;;5034997;28;20445;-75
2023/10/12 07:16:36;;;;;;;;;;;;;;;;;;5035035;28;20414;-75
2023/10/12 07:19:06;;;;;;;;;;;;;;;;;;5033419;28;20044;-75
2023/10/12 07:21:33;;;;;;;;;;;;;;;;;;5032884;28;19929;-77
2023/10/12 07:24:07;;;;;;;;;;;;;;;;;;5034165;28;20379;-75
2023/10/12 07:26:35;;;;;;;;;;;;;;;;;;5034267;28;19932;-75
2023/10/12 07:29:16;;;;;;;;;;;;;;;;;;5033472;28;19948;-75
2023/10/12 07:31:48;;;;;;;;;;;;;;;;;;5029880;28;19959;-75
2023/10/12 07:34:18;;;;;;;;;;;;;;;;;;5034173;28;19925;-75
2023/10/12 07:36:57;;;;;;;;;;;;;;;;;;5033572;28;20025;-75
2023/10/12 07:39:38;;;;;;;;;;;;;;;;;;5027794;28;19979;-75
2023/10/12 07:42:05;;;;;;;;;;;;;;;;;;5027525;28;19995;-75
2023/10/12 07:44:40;;;;;;;;;;;;;;;;;;5015415;28;19977;-75
2023/10/12 07:47:14;;;;;;;;;;;;;;;;;;5037553;28;19928;-76
2023/10/12 07:49:48;;;;;;;;;;;;;;;;;;5030798;28;19929;-74
2023/10/12 07:52:31;;;;;;;;;;;;;;;;;;5033383;28;20304;-76
2023/10/12 07:54:58;;;;;;;;;;;;;;;;;;5032979;28;19932;-74
2023/10/12 07:57:29;;;;;;;;;;;;;;;;;;5034017;28;19925;-74
2023/10/12 08:00:18;;;;;;;;;;;;;;;;;;5033548;28;20393;-74
2023/10/12 08:03:07;;;;;;;;;;;;;;;;;;5033079;28;19925;-74
2023/10/12 08:08:33;;;;;;;;;;;;;;;;;;5016671;28;19928;-74
2023/10/12 08:11:00;;;;;;;;;;;;;;;;;;5030755;28;19951;-74
2023/10/12 08:13:32;;;;;;;;;;;;;;;;;;5029475;28;20406;-76
2023/10/12 08:16:03;;;;;;;;;;;;;;;;;;5031359;28;20028;-75
2023/10/12 08:21:23;;;;;;;;;;;;;;;;;;5031355;28;19975;-75
2023/10/12 08:23:51;;;;;;;;;;;;;;;;;;5033171;28;19933;-75
2023/10/12 08:26:35;;;;;;;;;;;;;;;;;;5033093;28;20330;-75
2023/10/12 08:29:08;;;;;;;;;;;;;;;;;;5031909;28;19931;-75
2023/10/12 08:31:35;;;;;;;;;;;;;;;;;;5031610;28;19968;-75
2023/10/12 08:34:13;;;;;;;;;;;;;;;;;;5032170;28;19964;-74
2023/10/12 08:37:07;;;;;;;;;;;;;;;;;;5022647;28;19925;-75
2023/10/12 08:39:37;;;;;;;;;;;;;;;;;;5031622;28;19933;-74
2023/10/12 08:42:29;;;;;;;;;;;;;;;;;;5031678;28;19932;-74
2023/10/12 08:44:58;;;;;;;;;;;;;;;;;;5020783;28;19925;-74
2023/10/12 08:47:26;;;;;;;;;;;;;;;;;;5031553;28;19932;-72
2023/10/12 08:49:53;;;;;;;;;;;;;;;;;;5030521;28;20411;-75
2023/10/12 08:52:20;;;;;;;;;;;;;;;;;;5030548;28;20388;-75
2023/10/12 08:54:47;;;;;;;;;;;;;;;;;;5036448;28;19982;-75
2023/10/12 08:57:16;;;;;;;;;;;;;;;;;;5034064;28;19929;-76
2023/10/12 08:59:43;;;;;;;;;;;;;;;;;;5030556;28;20016;-74
2023/10/12 09:02:19;;;;;;;;;;;;;;;;;;5030915;28;19925;-74
2023/10/12 09:04:48;;;;;;;;;;;;;;;;;;5030798;28;19932;-75
2023/10/12 09:07:19;;;;;;;;;;;;;;;;;;5032594;28;19952;-75
2023/10/12 09:09:55;;;;;;;;;;;;;;;;;;5030812;28;19929;-74
2023/10/12 09:12:23;;;;;;;;;;;;;;;;;;5031638;28;19933;-75
2023/10/12 09:14:54;;;;;;;;;;;;;;;;;;5030644;28;20023;-75
2023/10/12 09:17:23;;;;;;;;;;;;;;;;;;5032109;28;19925;-75
2023/10/12 09:19:51;;;;;;;;;;;;;;;;;;5030333;28;20396;-75
2023/10/12 09:22:27;;;;;;;;;;;;;;;;;;5028847;28;20364;-74
2023/10/12 09:24:54;;;;;;;;;;;;;;;;;;5027580;28;20019;-75
2023/10/12 09:27:36;;;;;;;;;;;;;;;;;;5030112;28;19925;-74
2023/10/12 09:30:15;;;;;;;;;;;;;;;;;;5032359;28;19991;-74
2023/10/12 09:32:56;;;;;;;;;;;;;;;;;;5031103;28;19945;-74
2023/10/12 09:35:29;;;;;;;;;;;;;;;;;;5031977;28;19979;-74
2023/10/12 09:37:56;;;;;;;;;;;;;;;;;;5030507;28;19932;-74
2023/10/12 09:40:29;;;;;;;;;;;;;;;;;;5032251;28;20277;-75
2023/10/12 09:42:59;;;;;;;;;;;;;;;;;;5030939;28;20026;-73
2023/10/12 09:45:26;;;;;;;;;;;;;;;;;;5031347;28;20273;-74
2023/10/12 09:47:55;;;;;;;;;;;;;;;;;;5030273;28;19925;-75
2023/10/12 09:50:27;;;;;;;;;;;;;;;;;;5030661;28;19936;-74
2023/10/12 09:52:58;;;;;;;;;;;;;;;;;;5029317;28;20297;-75
2023/10/12 09:55:25;;;;;;;;;;;;;;;;;;5030917;28;19983;-74
2023/10/12 09:57:52;;;;;;;;;;;;;;;;;;5030460;28;19973;-75
2023/10/12 10:00:28;;;;;;;;;;;;;;;;;;5031571;28;19984;-75
2023/10/12 10:02:58;;;;;;;;;;;;;;;;;;5025978;28;19926;-75
2023/10/12 10:05:39;;;;;;;;;;;;;;;;;;5012231;28;19926;-74
2023/10/12 10:08:06;;;;;;;;;;;;;;;;;;5029712;28;20022;-74
2023/10/12 10:10:34;;;;;;;;;;;;;;;;;;5031505;28;20465;-75
2023/10/12 10:13:01;;;;;;;;;;;;;;;;;;5031556;28;19925;-75
2023/10/12 10:15:29;;;;;;;;;;;;;;;;;;5031152;28;19929;-75
2023/10/12 10:17:57;;;;;;;;;;;;;;;;;;5030238;28;19933;-75
2023/10/12 10:23:14;;;;;;;;;;;;;;;;;;5032703;28;20288;-75
2023/10/12 10:25:45;;;;;;;;;;;;;;;;;;5034148;28;20296;-74
2023/10/12 10:28:13;;;;;;;;;;;;;;;;;;5032794;28;19949;-75
2023/10/12 10:30:40;;;;;;;;;;;;;;;;;;5034910;28;19948;-75
2023/10/12 10:33:12;;;;;;;;;;;;;;;;;;5033268;28;19936;-74
2023/10/12 10:35:39;;;;;;;;;;;;;;;;;;5034206;28;20006;-75
2023/10/12 10:38:07;;;;;;;;;;;;;;;;;;5045852;28;19929;-74
2023/10/12 10:40:44;;;;;;;;;;;;;;;;;;5034603;28;19926;-74
2023/10/12 10:43:14;;;;;;;;;;;;;;;;;;5027651;28;19929;-75
2023/10/12 10:45:42;;;;;;;;;;;;;;;;;;5034219;28;19925;-74
2023/10/12 10:48:13;;;;;;;;;;;;;;;;;;5032471;28;20384;-74
2023/10/12 10:50:51;;;;;;;;;;;;;;;;;;5034387;28;19975;-74
2023/10/12 10:53:18;;;;;;;;;;;;;;;;;;5034545;28;19925;-74
2023/10/12 10:55:47;;;;;;;;;;;;;;;;;;5037046;28;20002;-74
2023/10/12 10:58:14;;;;;;;;;;;;;;;;;;5034232;28;19933;-75
2023/10/12 11:00:45;;;;;;;;;;;;;;;;;;5035590;28;19931;-74
2023/10/12 11:03:12;;;;;;;;;;;;;;;;;;5030731;28;19925;-75
2023/10/12 11:05:40;;;;;;;;;;;;;;;;;;5032272;28;19925;-75
2023/10/12 11:08:19;;;;;;;;;;;;;;;;;;5033276;28;19929;-75
2023/10/12 11:13:31;;;;;;;;;;;;;;;;;;5031835;28;19940;-75
2023/10/12 11:16:03;;;;;;;;;;;;;;;;;;5034556;28;19931;-75
2023/10/12 11:18:30;;;;;;;;;;;;;;;;;;5033371;28;19925;-74
2023/10/12 11:21:00;;;;;;;;;;;;;;;;;;5033017;28;19925;-74
2023/10/12 11:23:27;;;;;;;;;;;;;;;;;;5033403;28;20234;-74
2023/10/12 11:25:55;;;;;;;;;;;;;;;;;;5030455;28;20010;-75
2023/10/12 11:28:21;;;;;;;;;;;;;;;;;;5034519;28;20015;-75
2023/10/12 11:30:51;;;;;;;;;;;;;;;;;;5033521;28;19929;-73
2023/10/12 11:33:20;;;;;;;;;;;;;;;;;;5030618;28;19925;-73
2023/10/12 11:35:47;;;;;;;;;;;;;;;;;;5032534;28;20008;-73
2023/10/12 11:38:14;;;;;;;;;;;;;;;;;;5033637;28;19925;-74
2023/10/12 11:40:43;;;;;;;;;;;;;;;;;;5033169;28;19931;-73
2023/10/12 11:43:10;;;;;;;;;;;;;;;;;;5033866;28;19925;-74
2023/10/12 11:45:37;;;;;;;;;;;;;;;;;;5034834;28;19983;-74
2023/10/12 11:48:04;;;;;;;;;;;;;;;;;;5033697;28;19935;-74
2023/10/12 11:50:31;;;;;;;;;;;;;;;;;;5031363;28;20430;-74
2023/10/12 11:52:58;;;;;;;;;;;;;;;;;;5032996;28;19925;-74
2023/10/12 11:55:31;;;;;;;;;;;;;;;;;;5032811;28;20346;-74
2023/10/12 11:57:59;;;;;;;;;;;;;;;;;;5032628;28;19932;-73
2023/10/12 12:00:29;;;;;;;;;;;;;;;;;;5031126;28;19972;-74
2023/10/12 12:02:59;;;;;;;;;;;;;;;;;;5033550;28;19925;-73
2023/10/12 12:05:29;;;;;;;;;;;;;;;;;;5032445;28;20391;-74
2023/10/12 12:07:58;;;;;;;;;;;;;;;;;;5033005;28;19964;-73
2023/10/12 12:10:37;;;;;;;;;;;;;;;;;;5032388;28;19932;-74
2023/10/12 12:13:07;;;;;;;;;;;;;;;;;;5032460;28;19956;-72
2023/10/12 12:15:35;;;;;;;;;;;;;;;;;;5033496;28;19929;-73
2023/10/12 12:18:04;;;;;;;;;;;;;;;;;;5032210;28;19925;-74
2023/10/12 12:20:38;;;;;;;;;;;;;;;;;;5037742;28;19925;-74
2023/10/12 12:23:05;;;;;;;;;;;;;;;;;;5030892;28;19972;-74
2023/10/12 12:25:34;;;;;;;;;;;;;;;;;;5033597;28;19925;-73
2023/10/12 12:28:04;;;;;;;;;;;;;;;;;;5031635;28;20331;-75
2023/10/12 12:30:32;;;;;;;;;;;;;;;;;;5029224;28;19932;-74
2023/10/12 12:33:00;;;;;;;;;;;;;;;;;;5032926;28;20012;-73
2023/10/12 12:35:27;;;;;;;;;;;;;;;;;;5031765;28;20418;-73
2023/10/12 12:38:00;;;;;;;;;;;;;;;;;;5032520;28;19933;-76
2023/10/12 12:40:29;;;;;;;;;;;;;;;;;;5032685;28;20359;-74
2023/10/12 12:42:56;;;;;;;;;;;;;;;;;;5031975;28;20387;-73
2023/10/12 12:45:23;;;;;;;;;;;;;;;;;;5031555;28;19952;-73
2023/10/12 12:47:50;;;;;;;;;;;;;;;;;;5032855;28;20442;-74
2023/10/12 12:50:17;;;;;;;;;;;;;;;;;;5031270;28;19965;-74
2023/10/12 12:52:46;;;;;;;;;;;;;;;;;;5028000;28;19925;-75
2023/10/12 12:55:16;;;;;;;;;;;;;;;;;;5031303;28;19932;-74
2023/10/12 12:57:43;;;;;;;;;;;;;;;;;;5030514;28;19940;-74
2023/10/12 13:00:10;;;;;;;;;;;;;;;;;;5028157;28;19929;-74
2023/10/12 13:02:38;;;;;;;;;;;;;;;;;;5031739;28;19925;-74
2023/10/12 13:05:07;;;;;;;;;;;;;;;;;;5029545;28;20038;-74
2023/10/12 13:07:34;;;;;;;;;;;;;;;;;;5031921;28;20027;-71
2023/10/12 13:10:01;;;;;;;;;;;;;;;;;;5033269;28;19929;-71
2023/10/12 13:12:31;;;;;;;;;;;;;;;;;;5031793;28;19925;-71
2023/10/12 13:15:00;;;;;;;;;;;;;;;;;;5030349;28;19928;-70
2023/10/12 13:17:29;;;;;;;;;;;;;;;;;;5031476;28;19929;-70
2023/10/12 13:19:58;;;;;;;;;;;;;;;;;;5020128;28;19932;-70
2023/10/12 13:22:25;;;;;;;;;;;;;;;;;;5030590;28;19929;-70
2023/10/12 13:24:56;;;;;;;;;;;;;;;;;;5030900;28;20385;-70
2023/10/12 13:27:24;;;;;;;;;;;;;;;;;;5029133;28;19928;-70
2023/10/12 13:29:51;;;;;;;;;;;;;;;;;;5029762;28;19939;-71
2023/10/12 13:32:18;;;;;;;;;;;;;;;;;;5029345;28;20847;-70
2023/10/12 13:34:45;;;;;;;;;;;;;;;;;;5027095;28;19925;-71
2023/10/12 13:37:13;;;;;;;;;;;;;;;;;;5029842;28;20024;-71
2023/10/12 13:39:40;;;;;;;;;;;;;;;;;;5031142;28;19933;-75
2023/10/12 13:42:11;;;;;;;;;;;;;;;;;;5029591;28;19995;-79
2023/10/12 13:44:40;;;;;;;;;;;;;;;;;;5030474;28;20019;-75
2023/10/12 13:47:07;;;;;;;;;;;;;;;;;;5027905;28;19936;-75
2023/10/12 13:49:37;;;;;;;;;;;;;;;;;;5029607;28;19939;-74
2023/10/12 13:52:04;;;;;;;;;;;;;;;;;;5029767;28;19987;-75
2023/10/12 13:54:31;;;;;;;;;;;;;;;;;;5030834;28;19925;-74
2023/10/12 13:57:02;;;;;;;;;;;;;;;;;;5028172;28;19929;-74
2023/10/12 13:59:29;;;;;;;;;;;;;;;;;;5012163;28;19926;-68
2023/10/12 14:01:56;;;;;;;;;;;;;;;;;;5031737;28;19933;-73
2023/10/12 14:04:28;;;;;;;;;;;;;;;;;;5030381;28;20020;-75
2023/10/12 14:07:00;;;;;;;;;;;;;;;;;;5029455;28;20074;-74
2023/10/12 14:09:28;;;;;;;;;;;;;;;;;;5028807;28;19937;-74
2023/10/12 14:11:55;;;;;;;;;;;;;;;;;;5029032;28;20020;-74
2023/10/12 14:14:22;;;;;;;;;;;;;;;;;;5030513;28;19925;-73
2023/10/12 14:16:49;;;;;;;;;;;;;;;;;;5031535;28;19929;-74
2023/10/12 14:19:22;;;;;;;;;;;;;;;;;;5033399;28;19929;-74
2023/10/12 14:21:51;;;;;;;;;;;;;;;;;;5030124;28;19961;-73
2023/10/12 14:24:18;;;;;;;;;;;;;;;;;;5030725;28;20438;-74
2023/10/12 14:26:46;;;;;;;;;;;;;;;;;;5026617;28;20044;-74
2023/10/12 14:29:18;;;;;;;;;;;;;;;;;;5029751;28;19932;-73
2023/10/12 14:31:45;;;;;;;;;;;;;;;;;;5028714;28;19953;-73
2023/10/12 14:34:13;;;;;;;;;;;;;;;;;;5031163;28;19925;-74
2023/10/12 14:36:40;;;;;;;;;;;;;;;;;;5033129;28;19987;-74
2023/10/12 14:39:22;;;;;;;;;;;;;;;;;;5030813;28;20007;-74
2023/10/12 14:41:49;;;;;;;;;;;;;;;;;;5028824;28;19925;-75
2023/10/12 14:44:16;;;;;;;;;;;;;;;;;;5022845;28;20036;-74
2023/10/12 14:46:45;;;;;;;;;;;;;;;;;;5025974;28;19925;-73
2023/10/12 14:49:14;;;;;;;;;;;;;;;;;;5030524;28;20066;-74
2023/10/12 14:51:42;;;;;;;;;;;;;;;;;;5028563;28;20029;-73
2023/10/12 14:54:10;;;;;;;;;;;;;;;;;;5028868;28;19925;-72
2023/10/12 14:56:38;;;;;;;;;;;;;;;;;;5028753;28;20023;-74
2023/10/12 14:59:05;;;;;;;;;;;;;;;;;;5027261;28;20035;-74
2023/10/12 15:01:32;;;;;;;;;;;;;;;;;;5026313;28;19933;-74
2023/10/12 15:03:59;;;;;;;;;;;;;;;;;;5027717;28;19929;-74
2023/10/12 15:06:30;;;;;;;;;;;;;;;;;;5027672;28;19991;-74
2023/10/12 15:08:57;;;;;;;;;;;;;;;;;;5029794;28;20042;-74
2023/10/12 15:11:25;;;;;;;;;;;;;;;;;;5031114;28;19929;-74
2023/10/12 15:13:53;;;;;;;;;;;;;;;;;;5031006;28;19936;-72
2023/10/12 15:16:21;;;;;;;;;;;;;;;;;;5031651;28;19925;-73
2023/10/12 15:18:48;;;;;;;;;;;;;;;;;;5030914;28;20402;-74
2023/10/12 15:21:18;;;;;;;;;;;;;;;;;;5032666;28;19925;-74
2023/10/12 15:23:45;;;;;;;;;;;;;;;;;;5031312;28;19936;-74
2023/10/12 15:26:13;;;;;;;;;;;;;;;;;;5031356;28;19964;-74
2023/10/12 15:28:47;;;;;;;;;;;;;;;;;;5028067;28;19944;-75
2023/10/12 15:31:16;;;;;;;;;;;;;;;;;;5026603;28;19933;-74
2023/10/12 15:33:43;;;;;;;;;;;;;;;;;;5025017;28;19929;-75
2023/10/12 15:36:10;;;;;;;;;;;;;;;;;;5024311;28;19925;-75
2023/10/12 15:38:40;;;;;;;;;;;;;;;;;;5028332;28;19957;-75
2023/10/12 15:41:07;;;;;;;;;;;;;;;;;;5028023;28;19935;-74
2023/10/12 15:43:34;;;;;;;;;;;;;;;;;;5027401;28;19933;-75
2023/10/12 15:46:01;;;;;;;;;;;;;;;;;;5022367;28;19929;-75
2023/10/12 15:48:29;;;;;;;;;;;;;;;;;;5025577;28;20380;-76
2023/10/12 15:50:57;;;;;;;;;;;;;;;;;;5029360;28;19987;-75
2023/10/12 15:53:24;;;;;;;;;;;;;;;;;;5027072;28;19979;-74
2023/10/12 15:55:52;;;;;;;;;;;;;;;;;;5022824;28;19936;-74
2023/10/12 15:58:19;;;;;;;;;;;;;;;;;;5026575;28;19933;-75
2023/10/12 16:00:47;;;;;;;;;;;;;;;;;;5025315;28;19929;-75
2023/10/12 16:03:19;;;;;;;;;;;;;;;;;;5023443;28;19998;-77
2023/10/12 16:05:46;;;;;;;;;;;;;;;;;;5026973;28;19925;-75
2023/10/12 16:08:15;;;;;;;;;;;;;;;;;;5027656;28;19987;-75
2023/10/12 16:10:42;;;;;;;;;;;;;;;;;;5027743;28;19944;-75
2023/10/12 16:13:09;;;;;;;;;;;;;;;;;;5029623;28;19983;-75
2023/10/12 16:15:36;;;;;;;;;;;;;;;;;;5028149;28;19972;-75
2023/10/12 16:18:03;;;;;;;;;;;;;;;;;;5033170;28;19925;-76
2023/10/12 16:20:30;;;;;;;;;;;;;;;;;;5027412;28;19951;-75
2023/10/12 16:22:58;;;;;;;;;;;;;;;;;;5028071;28;19929;-75
2023/10/12 16:25:25;;;;;;;;;;;;;;;;;;5028768;28;19926;-75
2023/10/12 16:27:52;;;;;;;;;;;;;;;;;;5027521;28;19929;-74
2023/10/12 16:30:19;;;;;;;;;;;;;;;;;;5029022;28;19929;-75
2023/10/12 16:32:46;;;;;;;;;;;;;;;;;;5029135;28;19926;-75
2023/10/12 16:35:13;;;;;;;;;;;;;;;;;;5026551;28;19925;-75
2023/10/12 16:37:44;;;;;;;;;;;;;;;;;;5027399;28;19929;-74
2023/10/12 16:40:15;;;;;;;;;;;;;;;;;;5024251;28;19925;-74
2023/10/12 16:42:42;;;;;;;;;;;;;;;;;;5025529;28;19933;-76
2023/10/12 16:45:09;;;;;;;;;;;;;;;;;;5027538;28;19976;-75
2023/10/12 16:47:36;;;;;;;;;;;;;;;;;;5024899;28;19932;-75
2023/10/12 16:50:04;;;;;;;;;;;;;;;;;;5027414;28;19929;-75
2023/10/12 16:52:31;;;;;;;;;;;;;;;;;;5028784;28;19999;-74
2023/10/12 16:54:59;;;;;;;;;;;;;;;;;;5017092;28;20305;-74
2023/10/12 16:57:26;;;;;;;;;;;;;;;;;;5024080;28;19933;-74
2023/10/12 16:59:53;;;;;;;;;;;;;;;;;;5025671;28;19925;-75
2023/10/12 17:02:21;;;;;;;;;;;;;;;;;;5026533;28;20358;-74
2023/10/12 17:04:48;;;;;;;;;;;;;;;;;;5025988;28;19968;-74
2023/10/12 17:07:15;;;;;;;;;;;;;;;;;;5025031;28;20028;-74
2023/10/12 17:09:42;;;;;;;;;;;;;;;;;;5026963;28;19948;-74
2023/10/12 17:12:10;;;;;;;;;;;;;;;;;;5027163;28;19926;-74
2023/10/12 17:14:37;;;;;;;;;;;;;;;;;;5025481;28;20024;-76
2023/10/12 17:17:04;;;;;;;;;;;;;;;;;;5021254;28;19968;-74
2023/10/12 17:19:32;;;;;;;;;;;;;;;;;;5020571;28;19998;-74
2023/10/12 17:21:59;;;;;;;;;;;;;;;;;;5024277;28;20581;-74
2023/10/12 17:24:28;;;;;;;;;;;;;;;;;;5026740;28;19929;-74